createdAt,value
2023-03-08T00:00:37.078Z,35.5
2023-03-08T00:15:37.552Z,34.6
2023-03-08T00:30:37.073Z,30.3
2023-03-08T00:45:38.364Z,31.6
2023-03-08T01:00:38.519Z,28.8
2023-03-08T01:15:39.547Z,32.1
2023-03-08T01:30:40.341Z,33.4
2023-03-08T01:45:41.852Z,39.2
2023-03-08T02:00:41.559Z,37.1
2023-03-08T02:01:26.653Z,37.8
2023-03-08T02:15:45.065Z,40.7
2023-03-08T02:30:43.110Z,36.7
2023-03-08T02:45:43.627Z,36.9
2023-03-08T03:00:45.188Z,38.8
2023-03-08T03:15:45.196Z,41.8
2023-03-08T03:30:45.956Z,39.1
2023-03-08T03:45:46.336Z,36.9
2023-03-08T04:00:46.778Z,36.3
2023-03-08T04:15:48.334Z,43.7
2023-03-08T04:30:48.545Z,47
2023-03-08T04:45:48.196Z,49.4
2023-03-08T05:00:49.302Z,46
2023-03-08T05:15:51.129Z,46.5
2023-03-08T05:30:50.054Z,46.6
2023-03-08T05:42:37.363Z,48.1
2023-03-08T05:57:40.428Z,45.6
2023-03-08T06:12:37.927Z,54.6
2023-03-08T06:27:39.306Z,49.1
2023-03-08T06:42:42.097Z,41.1
2023-03-08T06:57:40.394Z,40.7
2023-03-08T07:12:40.991Z,43.1
2023-03-08T07:27:41.340Z,43.8
2023-03-08T07:42:41.965Z,39.3
2023-03-08T07:57:42.682Z,40.2
2023-03-08T08:12:43.579Z,40.4
2023-03-08T08:27:45.038Z,37.7
2023-03-08T08:42:44.435Z,39.6
2023-03-08T08:57:45.202Z,38.5
2023-03-08T09:12:53.075Z,38
2023-03-08T09:27:46.314Z,33.5
2023-03-08T09:42:46.549Z,32.9
2023-03-08T09:57:48.977Z,35.3
2023-03-08T10:12:47.869Z,29.1
2023-03-08T10:27:48.320Z,29
2023-03-08T10:42:48.806Z,27.2
2023-03-08T10:57:49.932Z,20.9
2023-03-08T11:12:51.682Z,9.3
2023-03-08T11:27:51.993Z,2.7
2023-03-08T11:42:52.426Z,3.3
2023-03-08T11:57:52.631Z,4.7
2023-03-08T12:12:52.881Z,4.7
2023-03-08T12:27:53.767Z,4.5
2023-03-08T12:42:54.172Z,6.6
2023-03-08T12:57:56.126Z,4.3
2023-03-08T13:12:55.575Z,2.7
2023-03-08T13:27:56.962Z,4.1
2023-03-08T13:42:57.507Z,3.1
2023-03-08T13:57:57.774Z,3.4
2023-03-08T14:12:58.503Z,2.3
2023-03-08T14:27:58.512Z,1.6
2023-03-08T14:42:59.669Z,2.8
2023-03-08T14:58:00.252Z,1
2023-03-08T15:13:00.599Z,1.7
2023-03-08T15:28:02.198Z,0.7
2023-03-08T15:43:02.645Z,0.9
2023-03-08T15:58:03.636Z,1
2023-03-08T16:13:03.768Z,0.6
2023-03-08T16:28:04.758Z,1
2023-03-08T16:43:05.103Z,6.3
2023-03-08T16:58:05.854Z,1.8
2023-03-08T17:13:07.763Z,4.5
2023-03-08T17:28:07.470Z,3
2023-03-08T17:43:08.300Z,4
2023-03-08T17:58:08.548Z,4.5
2023-03-08T18:13:09.825Z,2.4
2023-03-08T18:28:09.543Z,4.4
2023-03-08T18:43:10.783Z,2.5
2023-03-08T18:58:11.618Z,4.4
2023-03-08T19:13:11.811Z,5.5
2023-03-08T19:28:15.469Z,5.4
2023-03-08T19:43:18.004Z,4.8
2023-03-08T19:58:13.477Z,3.6
2023-03-08T20:13:14.296Z,4.6
2023-03-08T20:28:15.370Z,3.5
2023-03-08T20:43:18.760Z,1.6
2023-03-08T20:58:16.784Z,2.3
2023-03-08T21:13:17.548Z,1.4
2023-03-08T21:28:18.097Z,1.3
2023-03-08T21:43:17.842Z,0.8
2023-03-08T21:58:19.465Z,0.8
2023-03-08T22:13:20.151Z,1.9
2023-03-08T22:28:19.992Z,1.9
2023-03-08T22:43:22.097Z,1.8
2023-03-08T22:58:22.548Z,3.1
2023-03-08T23:00:48.713Z,2.3
2023-03-08T23:15:35.454Z,1.7
2023-03-08T23:30:42.573Z,1.6
2023-03-08T23:45:43.929Z,1.5
